DUZEAR1 KSJT-KMAF
Flight info
| Callsign | DUZEAR1 |
|---|---|
| Flight time | 0h 36m |
| Altitude | 20000 |
| Route | KSJT/09 N0281F200 DCT TANKR DCT PYLET DCT STEEP DCT DEWEY DCT JOKES DCT MIPEE DCT CEXOM DCT SIXVE DCT NOING DCT PIZON DCT ARGET DCT KMAF/10 |
| Aircraft | PC12/L-SDE2FGIRWY/SB1 |
Departure
| Time | 2026-04-22 01:11 |
|---|---|
| Airport | San Angelo Regional Mathis Field (KSJT) |
Arrival
| Time | 2026-04-22 01:47 |
|---|---|
| Airport | Midland International Air and Space Port (KMAF) |
| Time | Latitude | Longitude | Altitude | Speed | Heading |
|---|---|---|---|---|---|
| 2026-04-22 00:59 | 31.35904 | -100.50281 | 1915 ft | 0 kts | 86° |
| 2026-04-22 01:09 | 31.35904 | -100.50278 | 1915 ft | 4 kts | 86° |
| 2026-04-22 01:10 | 31.35940 | -100.50181 | 1910 ft | 20 kts | 35° |
| 2026-04-22 01:10 | 31.36074 | -100.50156 | 1916 ft | 21 kts | 7° |
| 2026-04-22 01:10 | 31.36107 | -100.50050 | 1911 ft | 34 kts | 96° |
| 2026-04-22 01:10 | 31.36045 | -100.49499 | 1919 ft | 101 kts | 97° |
| 2026-04-22 01:11 | 31.36158 | -100.48589 | 2237 ft | 130 kts | 51° |
| 2026-04-22 01:11 | 31.37032 | -100.48285 | 2842 ft | 147 kts | 353° |
| 2026-04-22 01:11 | 31.37892 | -100.49018 | 3291 ft | 169 kts | 296° |
| 2026-04-22 01:11 | 31.38285 | -100.50334 | 3840 ft | 173 kts | 285° |
| 2026-04-22 01:12 | 31.38639 | -100.51616 | 4757 ft | 156 kts | 285° |
| 2026-04-22 01:12 | 31.39024 | -100.52807 | 5647 ft | 156 kts | 285° |
| 2026-04-22 01:12 | 31.39522 | -100.53944 | 6533 ft | 158 kts | 292° |
| 2026-04-22 01:12 | 31.39956 | -100.54860 | 7219 ft | 158 kts | 292° |
| 2026-04-22 01:13 | 31.40488 | -100.55993 | 8077 ft | 159 kts | 292° |
| 2026-04-22 01:13 | 31.41023 | -100.57125 | 8898 ft | 160 kts | 294° |
| 2026-04-22 01:13 | 31.41567 | -100.58262 | 9716 ft | 160 kts | 295° |
| 2026-04-22 01:13 | 31.42107 | -100.59395 | 10553 ft | 158 kts | 296° |
| 2026-04-22 01:14 | 31.42644 | -100.60520 | 11373 ft | 158 kts | 296° |
| 2026-04-22 01:14 | 31.43175 | -100.61635 | 12199 ft | 156 kts | 297° |
| 2026-04-22 01:14 | 31.43703 | -100.62746 | 12992 ft | 156 kts | 297° |
| 2026-04-22 01:14 | 31.44233 | -100.63861 | 13752 ft | 158 kts | 297° |
| 2026-04-22 01:15 | 31.44768 | -100.64987 | 14493 ft | 159 kts | 297° |
| 2026-04-22 01:15 | 31.45228 | -100.66169 | 15223 ft | 160 kts | 291° |
| 2026-04-22 01:15 | 31.45672 | -100.67370 | 15948 ft | 162 kts | 292° |
| 2026-04-22 01:15 | 31.46127 | -100.68584 | 16661 ft | 163 kts | 292° |
| 2026-04-22 01:16 | 31.46584 | -100.69808 | 17364 ft | 165 kts | 292° |
| 2026-04-22 01:16 | 31.47040 | -100.71029 | 18056 ft | 167 kts | 292° |
| 2026-04-22 01:16 | 31.47513 | -100.72297 | 18757 ft | 168 kts | 291° |
| 2026-04-22 01:16 | 31.47982 | -100.73553 | 19442 ft | 169 kts | 292° |
| 2026-04-22 01:17 | 31.48457 | -100.74827 | 20114 ft | 171 kts | 291° |
| 2026-04-22 01:17 | 31.48935 | -100.76109 | 20780 ft | 172 kts | 291° |
| 2026-04-22 01:17 | 31.49416 | -100.77400 | 21423 ft | 174 kts | 291° |
| 2026-04-22 01:17 | 31.49895 | -100.78688 | 22051 ft | 175 kts | 291° |
| 2026-04-22 01:18 | 31.50391 | -100.80018 | 22681 ft | 177 kts | 292° |
| 2026-04-22 01:18 | 31.50885 | -100.81347 | 23291 ft | 178 kts | 291° |
| 2026-04-22 01:18 | 31.51375 | -100.82664 | 23856 ft | 180 kts | 292° |
| 2026-04-22 01:18 | 31.51887 | -100.84039 | 24110 ft | 185 kts | 292° |
| 2026-04-22 01:19 | 31.52393 | -100.85401 | 24100 ft | 180 kts | 292° |
| 2026-04-22 01:19 | 31.52888 | -100.86732 | 24102 ft | 177 kts | 291° |
| 2026-04-22 01:19 | 31.53397 | -100.88105 | 24124 ft | 196 kts | 292° |
| 2026-04-22 01:19 | 31.53978 | -100.89674 | 24132 ft | 222 kts | 292° |
| 2026-04-22 01:20 | 31.54621 | -100.91408 | 24132 ft | 240 kts | 292° |
| 2026-04-22 01:20 | 31.55305 | -100.93246 | 24127 ft | 251 kts | 292° |
| 2026-04-22 01:20 | 31.56012 | -100.95152 | 24122 ft | 258 kts | 292° |
| 2026-04-22 01:20 | 31.56725 | -100.97072 | 24116 ft | 247 kts | 292° |
| 2026-04-22 01:21 | 31.57411 | -100.98928 | 24118 ft | 253 kts | 292° |
| 2026-04-22 01:21 | 31.58119 | -101.00842 | 24119 ft | 258 kts | 292° |
| 2026-04-22 01:21 | 31.58839 | -101.02787 | 24119 ft | 261 kts | 292° |
| 2026-04-22 01:21 | 31.59565 | -101.04751 | 24119 ft | 263 kts | 292° |
| 2026-04-22 01:22 | 31.60295 | -101.06728 | 24119 ft | 264 kts | 292° |
| 2026-04-22 01:22 | 31.61027 | -101.08708 | 24120 ft | 265 kts | 292° |
| 2026-04-22 01:22 | 31.61733 | -101.10658 | 24120 ft | 265 kts | 291° |
| 2026-04-22 01:22 | 31.62453 | -101.12699 | 24120 ft | 266 kts | 291° |
| 2026-04-22 01:23 | 31.63167 | -101.14702 | 24119 ft | 266 kts | 292° |
| 2026-04-22 01:23 | 31.63905 | -101.16695 | 24120 ft | 266 kts | 292° |
| 2026-04-22 01:23 | 31.64645 | -101.18691 | 24120 ft | 267 kts | 292° |
| 2026-04-22 01:23 | 31.65370 | -101.20667 | 24119 ft | 267 kts | 292° |
| 2026-04-22 01:24 | 31.66109 | -101.22687 | 24119 ft | 267 kts | 292° |
| 2026-04-22 01:24 | 31.66841 | -101.24688 | 24118 ft | 266 kts | 292° |
| 2026-04-22 01:24 | 31.67573 | -101.26686 | 24118 ft | 267 kts | 292° |
| 2026-04-22 01:24 | 31.68307 | -101.28689 | 24118 ft | 267 kts | 292° |
| 2026-04-22 01:25 | 31.69040 | -101.30692 | 24118 ft | 267 kts | 292° |
| 2026-04-22 01:25 | 31.69772 | -101.32696 | 24118 ft | 267 kts | 292° |
| 2026-04-22 01:25 | 31.70503 | -101.34697 | 24118 ft | 267 kts | 292° |
| 2026-04-22 01:25 | 31.71236 | -101.36706 | 24118 ft | 267 kts | 292° |
| 2026-04-22 01:26 | 31.71968 | -101.38709 | 24118 ft | 267 kts | 292° |
| 2026-04-22 01:26 | 31.72692 | -101.40694 | 24108 ft | 268 kts | 292° |
| 2026-04-22 01:26 | 31.73435 | -101.42735 | 24108 ft | 268 kts | 292° |
| 2026-04-22 01:26 | 31.74159 | -101.44722 | 24107 ft | 268 kts | 292° |
| 2026-04-22 01:27 | 31.74892 | -101.46735 | 24108 ft | 268 kts | 292° |
| 2026-04-22 01:27 | 31.75626 | -101.48752 | 24108 ft | 268 kts | 292° |
| 2026-04-22 01:27 | 31.76358 | -101.50767 | 24108 ft | 268 kts | 292° |
| 2026-04-22 01:27 | 31.77092 | -101.52783 | 24105 ft | 268 kts | 292° |
| 2026-04-22 01:28 | 31.77824 | -101.54799 | 24099 ft | 268 kts | 292° |
| 2026-04-22 01:28 | 31.78557 | -101.56816 | 24098 ft | 269 kts | 292° |
| 2026-04-22 01:28 | 31.79290 | -101.58836 | 24098 ft | 269 kts | 292° |
| 2026-04-22 01:28 | 31.80026 | -101.60866 | 23948 ft | 273 kts | 292° |
| 2026-04-22 01:29 | 31.80767 | -101.62910 | 23614 ft | 269 kts | 292° |
| 2026-04-22 01:29 | 31.81497 | -101.64921 | 23262 ft | 266 kts | 292° |
| 2026-04-22 01:29 | 31.82221 | -101.66923 | 22905 ft | 267 kts | 292° |
| 2026-04-22 01:29 | 31.82955 | -101.68951 | 22555 ft | 271 kts | 292° |
| 2026-04-22 01:30 | 31.83693 | -101.70992 | 22196 ft | 272 kts | 292° |
| 2026-04-22 01:30 | 31.84432 | -101.73036 | 21831 ft | 272 kts | 292° |
| 2026-04-22 01:30 | 31.85172 | -101.75083 | 21471 ft | 272 kts | 292° |
| 2026-04-22 01:30 | 31.85909 | -101.77127 | 21111 ft | 272 kts | 292° |
| 2026-04-22 01:31 | 31.86647 | -101.79171 | 20751 ft | 272 kts | 292° |
| 2026-04-22 01:31 | 31.87390 | -101.81231 | 20388 ft | 274 kts | 292° |
| 2026-04-22 01:31 | 31.88131 | -101.83289 | 20021 ft | 275 kts | 292° |
| 2026-04-22 01:31 | 31.88878 | -101.85363 | 19658 ft | 274 kts | 292° |
| 2026-04-22 01:32 | 31.89600 | -101.87371 | 19304 ft | 275 kts | 292° |
| 2026-04-22 01:32 | 31.90365 | -101.89494 | 18929 ft | 275 kts | 292° |
| 2026-04-22 01:32 | 31.91110 | -101.91573 | 18565 ft | 277 kts | 292° |
| 2026-04-22 01:32 | 31.91859 | -101.93661 | 18195 ft | 277 kts | 292° |
| 2026-04-22 01:33 | 31.92609 | -101.95749 | 17826 ft | 276 kts | 292° |
| 2026-04-22 01:33 | 31.93393 | -101.97804 | 17457 ft | 275 kts | 297° |
| 2026-04-22 01:33 | 31.94346 | -101.99755 | 17094 ft | 274 kts | 298° |
| 2026-04-22 01:33 | 31.95286 | -102.01698 | 16731 ft | 273 kts | 298° |
| 2026-04-22 01:34 | 31.96218 | -102.03644 | 16368 ft | 272 kts | 298° |
| 2026-04-22 01:34 | 31.97147 | -102.05581 | 16006 ft | 271 kts | 298° |
| 2026-04-22 01:34 | 31.98072 | -102.07497 | 15648 ft | 270 kts | 298° |
| 2026-04-22 01:34 | 31.98997 | -102.09421 | 15289 ft | 268 kts | 298° |
| 2026-04-22 01:35 | 31.99906 | -102.11332 | 14936 ft | 268 kts | 298° |
| 2026-04-22 01:35 | 32.00796 | -102.13211 | 14585 ft | 267 kts | 298° |
| 2026-04-22 01:35 | 32.01698 | -102.15109 | 14232 ft | 266 kts | 298° |
| 2026-04-22 01:35 | 32.02606 | -102.17018 | 13877 ft | 265 kts | 298° |
| 2026-04-22 01:36 | 32.03503 | -102.18904 | 13526 ft | 264 kts | 298° |
| 2026-04-22 01:36 | 32.04403 | -102.20798 | 13173 ft | 263 kts | 298° |
| 2026-04-22 01:36 | 32.05080 | -102.21979 | 12933 ft | 263 kts | 307° |
| 2026-04-22 01:36 | 32.06269 | -102.23614 | 12585 ft | 263 kts | 309° |
| 2026-04-22 01:37 | 32.07438 | -102.25253 | 12238 ft | 262 kts | 308° |
| 2026-04-22 01:37 | 32.08602 | -102.26905 | 11886 ft | 260 kts | 307° |
| 2026-04-22 01:37 | 32.09548 | -102.28715 | 11540 ft | 259 kts | 295° |
| 2026-04-22 01:37 | 32.10596 | -102.31239 | 11088 ft | 259 kts | 296° |
| 2026-04-22 01:38 | 32.11142 | -102.32518 | 10853 ft | 259 kts | 296° |
| 2026-04-22 01:38 | 32.11950 | -102.34420 | 10442 ft | 259 kts | 295° |
| 2026-04-22 01:38 | 32.12628 | -102.36029 | 10135 ft | 259 kts | 295° |
| 2026-04-22 01:38 | 32.13270 | -102.38000 | 9793 ft | 258 kts | 281° |
| 2026-04-22 01:39 | 32.13366 | -102.40101 | 9450 ft | 257 kts | 264° |
| 2026-04-22 01:39 | 32.12962 | -102.42012 | 9132 ft | 258 kts | 248° |
| 2026-04-22 01:39 | 32.12036 | -102.43813 | 8791 ft | 258 kts | 230° |
| 2026-04-22 01:39 | 32.10685 | -102.45192 | 8450 ft | 258 kts | 212° |
| 2026-04-22 01:40 | 32.09042 | -102.46015 | 8108 ft | 257 kts | 195° |
| 2026-04-22 01:40 | 32.07300 | -102.46207 | 7772 ft | 256 kts | 178° |
| 2026-04-22 01:40 | 32.05561 | -102.45758 | 7439 ft | 255 kts | 160° |
| 2026-04-22 01:40 | 32.04050 | -102.44733 | 7106 ft | 255 kts | 143° |
| 2026-04-22 01:41 | 32.02850 | -102.43196 | 6750 ft | 256 kts | 127° |
| 2026-04-22 01:41 | 32.02088 | -102.41471 | 6429 ft | 221 kts | 116° |
| 2026-04-22 01:41 | 32.01575 | -102.39998 | 6160 ft | 174 kts | 117° |
| 2026-04-22 01:41 | 32.01108 | -102.38716 | 5931 ft | 165 kts | 118° |
| 2026-04-22 01:42 | 32.00660 | -102.37503 | 5734 ft | 154 kts | 118° |
| 2026-04-22 01:42 | 32.00239 | -102.36367 | 5540 ft | 156 kts | 119° |
| 2026-04-22 01:42 | 31.99839 | -102.35283 | 5331 ft | 127 kts | 119° |
| 2026-04-22 01:42 | 31.99538 | -102.34472 | 5189 ft | 96 kts | 122° |
| 2026-04-22 01:43 | 31.99253 | -102.33722 | 5069 ft | 106 kts | 120° |
| 2026-04-22 01:43 | 31.98978 | -102.32969 | 4920 ft | 91 kts | 120° |
| 2026-04-22 01:43 | 31.98724 | -102.32289 | 4818 ft | 98 kts | 120° |
| 2026-04-22 01:43 | 31.98439 | -102.31524 | 4677 ft | 98 kts | 119° |
| 2026-04-22 01:44 | 31.98191 | -102.30848 | 4554 ft | 89 kts | 120° |
| 2026-04-22 01:44 | 31.97909 | -102.30102 | 4436 ft | 104 kts | 118° |
| 2026-04-22 01:44 | 31.97634 | -102.29355 | 4294 ft | 97 kts | 118° |
| 2026-04-22 01:44 | 31.97367 | -102.28636 | 4170 ft | 95 kts | 118° |
| 2026-04-22 01:45 | 31.97101 | -102.27916 | 4042 ft | 96 kts | 118° |
| 2026-04-22 01:45 | 31.96838 | -102.27206 | 3913 ft | 94 kts | 118° |
| 2026-04-22 01:45 | 31.96584 | -102.26525 | 3789 ft | 88 kts | 118° |
| 2026-04-22 01:45 | 31.96346 | -102.25885 | 3677 ft | 87 kts | 119° |
| 2026-04-22 01:46 | 31.96097 | -102.25215 | 3557 ft | 91 kts | 118° |
| 2026-04-22 01:46 | 31.95839 | -102.24520 | 3454 ft | 94 kts | 117° |
| 2026-04-22 01:46 | 31.95585 | -102.23820 | 3307 ft | 92 kts | 117° |
| 2026-04-22 01:46 | 31.95335 | -102.23140 | 3184 ft | 89 kts | 117° |
| 2026-04-22 01:47 | 31.95082 | -102.22488 | 3063 ft | 87 kts | 117° |
| 2026-04-22 01:47 | 31.94843 | -102.21841 | 2951 ft | 86 kts | 115° |
| 2026-04-22 01:47 | 31.94606 | -102.21215 | 2876 ft | 77 kts | 115° |
| 2026-04-22 01:47 | 31.94465 | -102.20829 | 2867 ft | 32 kts | 113° |
| 2026-04-22 01:48 | 31.94374 | -102.20609 | 2864 ft | 13 kts | 146° |
| 2026-04-22 01:48 | 31.94277 | -102.20589 | 2864 ft | 0 kts | 171° |
| 2026-04-22 01:49 | 31.94227 | -102.20582 | 2865 ft | 14 kts | 172° |
| 2026-04-22 01:49 | 31.94135 | -102.20571 | 2866 ft | 10 kts | 173° |
| 2026-04-22 01:49 | 31.94062 | -102.20564 | 2865 ft | 8 kts | 175° |
| 2026-04-22 01:50 | 31.94000 | -102.20558 | 2865 ft | 3 kts | 189° |
| 2026-04-22 01:50 | 31.93963 | -102.20604 | 2865 ft | 0 kts | 230° |
| 2026-04-22 01:50 | 31.93920 | -102.20656 | 2865 ft | 17 kts | 223° |
| 2026-04-22 01:50 | 31.93899 | -102.20709 | 2865 ft | 1 kts | 1° |
| 2026-04-22 01:51 | 31.93907 | -102.20709 | 2865 ft | 0 kts | 356° |
| 2026-04-22 01:51 | 31.93909 | -102.20710 | 2865 ft | 0 kts | 354° |